sensor_id;sensor_type;location;lat;lon;timestamp;P1;durP1;ratioP1;P2;durP2;ratioP2
23642;SDS011;11998;55.788;37.572;2023-02-03T00:00:23;53.00;;;30.70;;
23642;SDS011;11998;55.788;37.572;2023-02-03T00:01:27;61.92;;;37.08;;
23642;SDS011;11998;55.788;37.572;2023-02-03T00:02:28;68.73;;;39.87;;
23642;SDS011;11998;55.788;37.572;2023-02-03T00:03:28;61.50;;;36.37;;
23642;SDS011;11998;55.788;37.572;2023-02-03T00:04:29;62.20;;;32.00;;
23642;SDS011;11998;55.788;37.572;2023-02-03T00:05:29;60.03;;;33.10;;
23642;SDS011;11998;55.788;37.572;2023-02-03T00:06:33;54.35;;;31.08;;
23642;SDS011;11998;55.788;37.572;2023-02-03T00:07:35;50.93;;;28.27;;
23642;SDS011;11998;55.788;37.572;2023-02-03T00:08:38;52.92;;;31.80;;
23642;SDS011;11998;55.788;37.572;2023-02-03T00:09:39;51.30;;;30.03;;
23642;SDS011;11998;55.788;37.572;2023-02-03T00:10:40;52.30;;;29.05;;
23642;SDS011;11998;55.788;37.572;2023-02-03T00:11:41;56.13;;;30.52;;
23642;SDS011;11998;55.788;37.572;2023-02-03T00:12:41;51.63;;;29.43;;
23642;SDS011;11998;55.788;37.572;2023-02-03T00:13:42;54.43;;;31.83;;
23642;SDS011;11998;55.788;37.572;2023-02-03T00:14:43;51.70;;;30.77;;
23642;SDS011;11998;55.788;37.572;2023-02-03T00:15:43;54.83;;;31.10;;
23642;SDS011;11998;55.788;37.572;2023-02-03T00:16:44;51.90;;;30.57;;
23642;SDS011;11998;55.788;37.572;2023-02-03T00:17:44;64.90;;;32.20;;
23642;SDS011;11998;55.788;37.572;2023-02-03T00:18:45;55.47;;;31.43;;
23642;SDS011;11998;55.788;37.572;2023-02-03T00:19:46;59.97;;;33.75;;
23642;SDS011;11998;55.788;37.572;2023-02-03T00:20:47;54.13;;;31.30;;
23642;SDS011;11998;55.788;37.572;2023-02-03T00:21:47;56.23;;;31.63;;
23642;SDS011;11998;55.788;37.572;2023-02-03T00:22:48;58.00;;;31.73;;
23642;SDS011;11998;55.788;37.572;2023-02-03T00:23:49;52.60;;;30.63;;
23642;SDS011;11998;55.788;37.572;2023-02-03T00:24:49;53.77;;;30.90;;
23642;SDS011;11998;55.788;37.572;2023-02-03T00:25:50;57.87;;;32.67;;
23642;SDS011;11998;55.788;37.572;2023-02-03T00:26:51;57.80;;;31.50;;
23642;SDS011;11998;55.788;37.572;2023-02-03T00:27:52;57.10;;;31.87;;
23642;SDS011;11998;55.788;37.572;2023-02-03T00:28:52;59.83;;;32.40;;
23642;SDS011;11998;55.788;37.572;2023-02-03T00:29:53;55.27;;;31.90;;
23642;SDS011;11998;55.788;37.572;2023-02-03T00:30:54;59.83;;;30.40;;
23642;SDS011;11998;55.788;37.572;2023-02-03T00:31:54;57.40;;;31.03;;
23642;SDS011;11998;55.788;37.572;2023-02-03T00:32:55;57.47;;;33.33;;
23642;SDS011;11998;55.788;37.572;2023-02-03T00:33:56;63.03;;;33.40;;
23642;SDS011;11998;55.788;37.572;2023-02-03T00:34:57;57.40;;;31.65;;
23642;SDS011;11998;55.788;37.572;2023-02-03T00:36:03;57.23;;;31.83;;
23642;SDS011;11998;55.788;37.572;2023-02-03T00:37:04;58.83;;;32.38;;
23642;SDS011;11998;55.788;37.572;2023-02-03T00:38:05;55.70;;;32.20;;
23642;SDS011;11998;55.788;37.572;2023-02-03T00:39:05;56.10;;;31.90;;
23642;SDS011;11998;55.788;37.572;2023-02-03T00:40:06;63.63;;;33.30;;
23642;SDS011;11998;55.788;37.572;2023-02-03T00:41:07;56.10;;;31.70;;
23642;SDS011;11998;55.788;37.572;2023-02-03T00:42:08;58.07;;;32.87;;
23642;SDS011;11998;55.788;37.572;2023-02-03T00:43:08;55.03;;;32.23;;
23642;SDS011;11998;55.788;37.572;2023-02-03T00:44:09;53.87;;;31.33;;
23642;SDS011;11998;55.788;37.572;2023-02-03T00:45:10;59.43;;;33.33;;
23642;SDS011;11998;55.788;37.572;2023-02-03T00:46:10;52.43;;;31.00;;
23642;SDS011;11998;55.788;37.572;2023-02-03T00:47:11;55.33;;;30.93;;
23642;SDS011;11998;55.788;37.572;2023-02-03T00:48:11;56.30;;;31.17;;
23642;SDS011;11998;55.788;37.572;2023-02-03T00:49:13;57.60;;;33.17;;
23642;SDS011;11998;55.788;37.572;2023-02-03T00:50:13;57.03;;;32.03;;
23642;SDS011;11998;55.788;37.572;2023-02-03T00:51:14;59.83;;;31.50;;
23642;SDS011;11998;55.788;37.572;2023-02-03T00:52:15;55.97;;;30.73;;
23642;SDS011;11998;55.788;37.572;2023-02-03T00:53:15;57.30;;;29.93;;
23642;SDS011;11998;55.788;37.572;2023-02-03T00:54:16;52.67;;;31.10;;
23642;SDS011;11998;55.788;37.572;2023-02-03T00:55:17;57.90;;;31.93;;
23642;SDS011;11998;55.788;37.572;2023-02-03T00:56:17;52.57;;;31.57;;
23642;SDS011;11998;55.788;37.572;2023-02-03T00:57:18;54.27;;;31.00;;
23642;SDS011;11998;55.788;37.572;2023-02-03T00:58:19;58.07;;;32.33;;
23642;SDS011;11998;55.788;37.572;2023-02-03T00:59:19;57.70;;;32.50;;
23642;SDS011;11998;55.788;37.572;2023-02-03T01:00:20;58.17;;;32.33;;
23642;SDS011;11998;55.788;37.572;2023-02-03T01:01:20;59.07;;;32.03;;
23642;SDS011;11998;55.788;37.572;2023-02-03T01:02:24;58.80;;;32.17;;
23642;SDS011;11998;55.788;37.572;2023-02-03T01:03:24;57.60;;;32.13;;
23642;SDS011;11998;55.788;37.572;2023-02-03T01:04:25;56.03;;;31.17;;
23642;SDS011;11998;55.788;37.572;2023-02-03T01:05:26;57.87;;;31.60;;
23642;SDS011;11998;55.788;37.572;2023-02-03T01:06:26;56.60;;;31.93;;
23642;SDS011;11998;55.788;37.572;2023-02-03T01:07:29;55.80;;;32.53;;
23642;SDS011;11998;55.788;37.572;2023-02-03T01:08:31;56.78;;;30.55;;
23642;SDS011;11998;55.788;37.572;2023-02-03T01:09:33;55.97;;;32.03;;
23642;SDS011;11998;55.788;37.572;2023-02-03T01:10:36;58.63;;;32.05;;
23642;SDS011;11998;55.788;37.572;2023-02-03T01:11:37;54.35;;;31.05;;
23642;SDS011;11998;55.788;37.572;2023-02-03T01:12:37;55.40;;;32.03;;
23642;SDS011;11998;55.788;37.572;2023-02-03T01:13:38;52.57;;;30.27;;
23642;SDS011;11998;55.788;37.572;2023-02-03T01:14:39;56.53;;;31.00;;
23642;SDS011;11998;55.788;37.572;2023-02-03T01:15:46;55.03;;;31.20;;
23642;SDS011;11998;55.788;37.572;2023-02-03T01:16:47;54.60;;;32.53;;
23642;SDS011;11998;55.788;37.572;2023-02-03T01:17:48;49.63;;;30.10;;
23642;SDS011;11998;55.788;37.572;2023-02-03T01:18:49;51.87;;;30.90;;
23642;SDS011;11998;55.788;37.572;2023-02-03T01:19:50;56.42;;;31.20;;
23642;SDS011;11998;55.788;37.572;2023-02-03T01:20:51;53.90;;;30.58;;
23642;SDS011;11998;55.788;37.572;2023-02-03T01:21:52;59.07;;;31.10;;
23642;SDS011;11998;55.788;37.572;2023-02-03T01:22:53;53.40;;;31.70;;
23642;SDS011;11998;55.788;37.572;2023-02-03T01:23:54;57.13;;;32.10;;
23642;SDS011;11998;55.788;37.572;2023-02-03T01:24:55;53.40;;;29.92;;
23642;SDS011;11998;55.788;37.572;2023-02-03T01:25:55;56.90;;;32.07;;
23642;SDS011;11998;55.788;37.572;2023-02-03T01:26:56;55.70;;;31.63;;
23642;SDS011;11998;55.788;37.572;2023-02-03T01:27:56;56.57;;;32.43;;
23642;SDS011;11998;55.788;37.572;2023-02-03T01:28:58;58.83;;;30.73;;
23642;SDS011;11998;55.788;37.572;2023-02-03T01:29:59;53.45;;;31.27;;
23642;SDS011;11998;55.788;37.572;2023-02-03T01:31:16;56.97;;;31.50;;
23642;SDS011;11998;55.788;37.572;2023-02-03T01:32:18;55.85;;;31.65;;
23642;SDS011;11998;55.788;37.572;2023-02-03T01:33:19;60.97;;;32.27;;
23642;SDS011;11998;55.788;37.572;2023-02-03T01:34:20;55.87;;;31.70;;
23642;SDS011;11998;55.788;37.572;2023-02-03T01:35:20;57.57;;;31.73;;
23642;SDS011;11998;55.788;37.572;2023-02-03T01:36:22;57.97;;;31.60;;
23642;SDS011;11998;55.788;37.572;2023-02-03T01:37:24;55.20;;;32.72;;
23642;SDS011;11998;55.788;37.572;2023-02-03T01:38:24;56.87;;;32.23;;
23642;SDS011;11998;55.788;37.572;2023-02-03T01:39:25;58.10;;;30.60;;
23642;SDS011;11998;55.788;37.572;2023-02-03T01:40:26;59.33;;;32.20;;
23642;SDS011;11998;55.788;37.572;2023-02-03T01:41:28;57.63;;;32.50;;
23642;SDS011;11998;55.788;37.572;2023-02-03T01:42:33;57.85;;;32.53;;
23642;SDS011;11998;55.788;37.572;2023-02-03T01:43:35;59.58;;;31.70;;
23642;SDS011;11998;55.788;37.572;2023-02-03T01:44:47;56.80;;;32.03;;
23642;SDS011;11998;55.788;37.572;2023-02-03T01:45:52;60.25;;;32.75;;
23642;SDS011;11998;55.788;37.572;2023-02-03T01:46:53;66.07;;;33.73;;
23642;SDS011;11998;55.788;37.572;2023-02-03T01:47:54;63.47;;;34.57;;
23642;SDS011;11998;55.788;37.572;2023-02-03T01:49:46;62.80;;;33.58;;
23642;SDS011;11998;55.788;37.572;2023-02-03T01:50:31;56.67;;;30.30;;
23642;SDS011;11998;55.788;37.572;2023-02-03T01:52:38;57.08;;;30.77;;
23642;SDS011;11998;55.788;37.572;2023-02-03T01:53:41;66.20;;;34.13;;
23642;SDS011;11998;55.788;37.572;2023-02-03T01:54:43;62.22;;;32.58;;
23642;SDS011;11998;55.788;37.572;2023-02-03T01:55:47;60.90;;;32.03;;
23642;SDS011;11998;55.788;37.572;2023-02-03T01:56:50;56.72;;;29.75;;
23642;SDS011;11998;55.788;37.572;2023-02-03T01:57:59;60.97;;;31.48;;
23642;SDS011;11998;55.788;37.572;2023-02-03T01:59:04;61.88;;;34.08;;
23642;SDS011;11998;55.788;37.572;2023-02-03T02:00:06;63.00;;;35.00;;
23642;SDS011;11998;55.788;37.572;2023-02-03T02:01:07;62.25;;;32.50;;
23642;SDS011;11998;55.788;37.572;2023-02-03T02:02:08;61.07;;;32.63;;
23642;SDS011;11998;55.788;37.572;2023-02-03T02:03:10;63.20;;;32.55;;
23642;SDS011;11998;55.788;37.572;2023-02-03T02:04:12;58.38;;;31.67;;
23642;SDS011;11998;55.788;37.572;2023-02-03T02:05:15;58.30;;;32.33;;
23642;SDS011;11998;55.788;37.572;2023-02-03T02:06:21;60.78;;;33.72;;
23642;SDS011;11998;55.788;37.572;2023-02-03T02:07:22;59.73;;;31.77;;
23642;SDS011;11998;55.788;37.572;2023-02-03T02:08:24;58.85;;;32.08;;
23642;SDS011;11998;55.788;37.572;2023-02-03T02:09:25;57.57;;;31.00;;
23642;SDS011;11998;55.788;37.572;2023-02-03T02:10:27;58.73;;;33.90;;
23642;SDS011;11998;55.788;37.572;2023-02-03T02:11:29;58.78;;;32.13;;
23642;SDS011;11998;55.788;37.572;2023-02-03T02:12:30;60.23;;;32.27;;
23642;SDS011;11998;55.788;37.572;2023-02-03T02:13:31;59.33;;;33.13;;
23642;SDS011;11998;55.788;37.572;2023-02-03T02:14:34;60.42;;;33.03;;
23642;SDS011;11998;55.788;37.572;2023-02-03T02:17:00;62.05;;;32.67;;
23642;SDS011;11998;55.788;37.572;2023-02-03T02:18:16;55.20;;;30.35;;
23642;SDS011;11998;55.788;37.572;2023-02-03T02:32:04;59.58;;;31.35;;
23642;SDS011;11998;55.788;37.572;2023-02-03T02:36:07;59.75;;;30.55;;
23642;SDS011;11998;55.788;37.572;2023-02-03T02:39:37;60.58;;;30.88;;
23642;SDS011;11998;55.788;37.572;2023-02-03T02:41:10;59.33;;;29.17;;
23642;SDS011;11998;55.788;37.572;2023-02-03T02:43:42;59.25;;;31.52;;
23642;SDS011;11998;55.788;37.572;2023-02-03T02:44:48;60.88;;;30.88;;
23642;SDS011;11998;55.788;37.572;2023-02-03T02:45:58;58.92;;;30.35;;
23642;SDS011;11998;55.788;37.572;2023-02-03T02:47:04;60.70;;;31.15;;
23642;SDS011;11998;55.788;37.572;2023-02-03T02:48:15;61.55;;;31.30;;
23642;SDS011;11998;55.788;37.572;2023-02-03T02:49:36;57.80;;;30.13;;
23642;SDS011;11998;55.788;37.572;2023-02-03T02:50:45;59.10;;;31.63;;
23642;SDS011;11998;55.788;37.572;2023-02-03T02:51:50;60.13;;;30.33;;
23642;SDS011;11998;55.788;37.572;2023-02-03T02:52:52;63.08;;;34.80;;
23642;SDS011;11998;55.788;37.572;2023-02-03T02:53:56;61.80;;;31.63;;
23642;SDS011;11998;55.788;37.572;2023-02-03T02:55:04;59.50;;;31.08;;
23642;SDS011;11998;55.788;37.572;2023-02-03T02:56:27;59.10;;;31.25;;
23642;SDS011;11998;55.788;37.572;2023-02-03T02:57:30;64.90;;;32.22;;
23642;SDS011;11998;55.788;37.572;2023-02-03T02:58:36;59.22;;;30.80;;
23642;SDS011;11998;55.788;37.572;2023-02-03T02:59:40;59.75;;;31.20;;
23642;SDS011;11998;55.788;37.572;2023-02-03T03:00:41;62.57;;;32.30;;
23642;SDS011;11998;55.788;37.572;2023-02-03T03:01:43;63.00;;;31.58;;
23642;SDS011;11998;55.788;37.572;2023-02-03T03:02:44;58.67;;;30.50;;
23642;SDS011;11998;55.788;37.572;2023-02-03T03:03:44;61.73;;;31.43;;
23642;SDS011;11998;55.788;37.572;2023-02-03T03:04:45;62.47;;;31.80;;
23642;SDS011;11998;55.788;37.572;2023-02-03T03:05:53;65.05;;;32.75;;
23642;SDS011;11998;55.788;37.572;2023-02-03T03:06:58;61.70;;;31.23;;
23642;SDS011;11998;55.788;37.572;2023-02-03T03:08:01;59.13;;;31.85;;
23642;SDS011;11998;55.788;37.572;2023-02-03T03:10:09;65.97;;;32.67;;
23642;SDS011;11998;55.788;37.572;2023-02-03T03:11:12;59.47;;;30.67;;
23642;SDS011;11998;55.788;37.572;2023-02-03T03:12:15;61.92;;;31.27;;
23642;SDS011;11998;55.788;37.572;2023-02-03T03:13:19;59.28;;;31.13;;
23642;SDS011;11998;55.788;37.572;2023-02-03T03:14:24;67.63;;;31.73;;
23642;SDS011;11998;55.788;37.572;2023-02-03T03:15:29;67.68;;;33.38;;
23642;SDS011;11998;55.788;37.572;2023-02-03T03:16:32;59.47;;;30.70;;
23642;SDS011;11998;55.788;37.572;2023-02-03T03:17:43;59.60;;;32.58;;
23642;SDS011;11998;55.788;37.572;2023-02-03T03:18:50;63.47;;;32.08;;
23642;SDS011;11998;55.788;37.572;2023-02-03T03:19:56;64.53;;;31.70;;
23642;SDS011;11998;55.788;37.572;2023-02-03T03:21:02;61.00;;;31.70;;
23642;SDS011;11998;55.788;37.572;2023-02-03T03:22:06;66.28;;;31.42;;
23642;SDS011;11998;55.788;37.572;2023-02-03T03:23:19;62.05;;;32.05;;
23642;SDS011;11998;55.788;37.572;2023-02-03T03:24:28;56.78;;;30.27;;
23642;SDS011;11998;55.788;37.572;2023-02-03T03:25:38;55.50;;;30.50;;
23642;SDS011;11998;55.788;37.572;2023-02-03T03:26:50;59.78;;;31.02;;
23642;SDS011;11998;55.788;37.572;2023-02-03T03:27:58;61.15;;;30.58;;
23642;SDS011;11998;55.788;37.572;2023-02-03T03:30:17;63.38;;;30.83;;
23642;SDS011;11998;55.788;37.572;2023-02-03T03:31:22;64.50;;;30.98;;
23642;SDS011;11998;55.788;37.572;2023-02-03T03:32:23;60.33;;;30.80;;
23642;SDS011;11998;55.788;37.572;2023-02-03T03:33:27;64.32;;;32.33;;
23642;SDS011;11998;55.788;37.572;2023-02-03T03:34:28;56.80;;;30.23;;
23642;SDS011;11998;55.788;37.572;2023-02-03T03:35:33;57.63;;;30.08;;
23642;SDS011;11998;55.788;37.572;2023-02-03T03:36:56;53.47;;;28.83;;
23642;SDS011;11998;55.788;37.572;2023-02-03T03:38:08;58.65;;;30.23;;
23642;SDS011;11998;55.788;37.572;2023-02-03T03:40:22;59.97;;;31.02;;
23642;SDS011;11998;55.788;37.572;2023-02-03T03:41:32;58.58;;;29.88;;
23642;SDS011;11998;55.788;37.572;2023-02-03T03:44:02;55.03;;;27.80;;
23642;SDS011;11998;55.788;37.572;2023-02-03T03:45:08;56.13;;;30.70;;
23642;SDS011;11998;55.788;37.572;2023-02-03T03:46:25;53.40;;;28.38;;
23642;SDS011;11998;55.788;37.572;2023-02-03T03:47:32;58.47;;;30.05;;
23642;SDS011;11998;55.788;37.572;2023-02-03T03:49:46;57.47;;;29.45;;
23642;SDS011;11998;55.788;37.572;2023-02-03T03:50:54;57.00;;;28.35;;
23642;SDS011;11998;55.788;37.572;2023-02-03T03:52:00;52.65;;;28.40;;
23642;SDS011;11998;55.788;37.572;2023-02-03T03:53:05;51.20;;;27.83;;
23642;SDS011;11998;55.788;37.572;2023-02-03T03:54:09;52.40;;;27.42;;
23642;SDS011;11998;55.788;37.572;2023-02-03T03:55:13;58.03;;;30.50;;
23642;SDS011;11998;55.788;37.572;2023-02-03T03:56:21;54.65;;;28.90;;
23642;SDS011;11998;55.788;37.572;2023-02-03T03:57:34;53.67;;;27.45;;
23642;SDS011;11998;55.788;37.572;2023-02-03T03:58:39;58.28;;;29.73;;
23642;SDS011;11998;55.788;37.572;2023-02-03T03:59:45;53.03;;;28.75;;
23642;SDS011;11998;55.788;37.572;2023-02-03T04:00:48;57.60;;;28.73;;
23642;SDS011;11998;55.788;37.572;2023-02-03T04:01:51;53.47;;;28.00;;
23642;SDS011;11998;55.788;37.572;2023-02-03T04:02:53;55.85;;;29.52;;
23642;SDS011;11998;55.788;37.572;2023-02-03T04:03:57;54.35;;;28.17;;
23642;SDS011;11998;55.788;37.572;2023-02-03T04:04:59;59.08;;;30.45;;
23642;SDS011;11998;55.788;37.572;2023-02-03T04:06:01;52.55;;;29.58;;
23642;SDS011;11998;55.788;37.572;2023-02-03T04:07:02;49.17;;;27.20;;
23642;SDS011;11998;55.788;37.572;2023-02-03T04:08:03;50.20;;;26.50;;
23642;SDS011;11998;55.788;37.572;2023-02-03T04:09:03;53.60;;;30.57;;
23642;SDS011;11998;55.788;37.572;2023-02-03T04:10:05;49.50;;;28.40;;
23642;SDS011;11998;55.788;37.572;2023-02-03T04:11:22;51.92;;;27.25;;
23642;SDS011;11998;55.788;37.572;2023-02-03T04:12:41;53.38;;;26.77;;
23642;SDS011;11998;55.788;37.572;2023-02-03T04:13:42;54.87;;;28.70;;
23642;SDS011;11998;55.788;37.572;2023-02-03T04:14:43;52.27;;;26.97;;
23642;SDS011;11998;55.788;37.572;2023-02-03T04:15:43;53.33;;;29.33;;
23642;SDS011;11998;55.788;37.572;2023-02-03T04:16:44;51.93;;;27.63;;
23642;SDS011;11998;55.788;37.572;2023-02-03T04:17:44;54.63;;;27.07;;
23642;SDS011;11998;55.788;37.572;2023-02-03T04:18:45;48.63;;;27.67;;
23642;SDS011;11998;55.788;37.572;2023-02-03T04:19:46;51.47;;;27.80;;
23642;SDS011;11998;55.788;37.572;2023-02-03T04:20:48;52.35;;;28.52;;
23642;SDS011;11998;55.788;37.572;2023-02-03T04:21:50;51.70;;;28.65;;
23642;SDS011;11998;55.788;37.572;2023-02-03T04:22:50;51.23;;;27.80;;
23642;SDS011;11998;55.788;37.572;2023-02-03T04:23:51;50.13;;;27.07;;
23642;SDS011;11998;55.788;37.572;2023-02-03T04:24:52;52.33;;;27.53;;
23642;SDS011;11998;55.788;37.572;2023-02-03T04:25:52;52.03;;;27.73;;
23642;SDS011;11998;55.788;37.572;2023-02-03T04:26:53;52.97;;;28.17;;
23642;SDS011;11998;55.788;37.572;2023-02-03T04:27:54;47.65;;;27.17;;
23642;SDS011;11998;55.788;37.572;2023-02-03T04:28:55;56.40;;;28.93;;
23642;SDS011;11998;55.788;37.572;2023-02-03T04:29:55;56.60;;;28.20;;
23642;SDS011;11998;55.788;37.572;2023-02-03T04:30:58;50.53;;;26.93;;
23642;SDS011;11998;55.788;37.572;2023-02-03T04:31:59;55.80;;;28.60;;
23642;SDS011;11998;55.788;37.572;2023-02-03T04:33:00;54.17;;;28.13;;
23642;SDS011;11998;55.788;37.572;2023-02-03T04:34:01;53.73;;;29.87;;
23642;SDS011;11998;55.788;37.572;2023-02-03T04:35:04;54.67;;;30.37;;
23642;SDS011;11998;55.788;37.572;2023-02-03T04:36:06;56.05;;;29.58;;
23642;SDS011;11998;55.788;37.572;2023-02-03T04:37:07;60.42;;;29.77;;
23642;SDS011;11998;55.788;37.572;2023-02-03T04:38:07;61.20;;;31.23;;
23642;SDS011;11998;55.788;37.572;2023-02-03T04:39:08;52.57;;;26.63;;
23642;SDS011;11998;55.788;37.572;2023-02-03T04:40:09;52.33;;;27.33;;
23642;SDS011;11998;55.788;37.572;2023-02-03T04:41:10;54.45;;;28.13;;
23642;SDS011;11998;55.788;37.572;2023-02-03T04:42:11;52.40;;;26.97;;
23642;SDS011;11998;55.788;37.572;2023-02-03T04:43:11;53.03;;;28.67;;
23642;SDS011;11998;55.788;37.572;2023-02-03T04:44:13;51.30;;;27.52;;
23642;SDS011;11998;55.788;37.572;2023-02-03T04:45:13;51.67;;;27.63;;
23642;SDS011;11998;55.788;37.572;2023-02-03T04:46:14;54.73;;;28.07;;
23642;SDS011;11998;55.788;37.572;2023-02-03T04:47:15;50.60;;;28.07;;
23642;SDS011;11998;55.788;37.572;2023-02-03T04:48:17;51.58;;;28.02;;
23642;SDS011;11998;55.788;37.572;2023-02-03T04:49:17;53.13;;;28.77;;
23642;SDS011;11998;55.788;37.572;2023-02-03T04:50:18;58.60;;;32.07;;
23642;SDS011;11998;55.788;37.572;2023-02-03T04:51:18;57.57;;;31.57;;
23642;SDS011;11998;55.788;37.572;2023-02-03T04:52:19;58.93;;;31.80;;
23642;SDS011;11998;55.788;37.572;2023-02-03T04:53:20;53.93;;;29.20;;
23642;SDS011;11998;55.788;37.572;2023-02-03T04:54:20;61.53;;;32.27;;
23642;SDS011;11998;55.788;37.572;2023-02-03T04:55:21;52.37;;;29.27;;
23642;SDS011;11998;55.788;37.572;2023-02-03T04:56:21;54.87;;;29.40;;
23642;SDS011;11998;55.788;37.572;2023-02-03T04:57:22;57.13;;;31.47;;
23642;SDS011;11998;55.788;37.572;2023-02-03T04:58:23;49.83;;;28.53;;
23642;SDS011;11998;55.788;37.572;2023-02-03T04:59:26;51.00;;;28.90;;
23642;SDS011;11998;55.788;37.572;2023-02-03T05:00:27;55.78;;;27.98;;
23642;SDS011;11998;55.788;37.572;2023-02-03T05:01:28;56.13;;;29.27;;
23642;SDS011;11998;55.788;37.572;2023-02-03T05:02:29;52.73;;;27.93;;
23642;SDS011;11998;55.788;37.572;2023-02-03T05:03:29;48.13;;;28.03;;
23642;SDS011;11998;55.788;37.572;2023-02-03T05:04:30;56.23;;;28.43;;
23642;SDS011;11998;55.788;37.572;2023-02-03T05:05:31;47.40;;;26.77;;
23642;SDS011;11998;55.788;37.572;2023-02-03T05:06:32;50.67;;;28.23;;
23642;SDS011;11998;55.788;37.572;2023-02-03T05:07:33;52.10;;;28.38;;
23642;SDS011;11998;55.788;37.572;2023-02-03T05:08:33;49.27;;;27.90;;
23642;SDS011;11998;55.788;37.572;2023-02-03T05:09:34;49.53;;;27.20;;
23642;SDS011;11998;55.788;37.572;2023-02-03T05:10:35;48.80;;;27.25;;
23642;SDS011;11998;55.788;37.572;2023-02-03T05:11:36;45.60;;;25.97;;
23642;SDS011;11998;55.788;37.572;2023-02-03T05:12:36;46.77;;;26.97;;
23642;SDS011;11998;55.788;37.572;2023-02-03T05:13:37;48.83;;;25.73;;
23642;SDS011;11998;55.788;37.572;2023-02-03T05:14:37;51.13;;;26.63;;
23642;SDS011;11998;55.788;37.572;2023-02-03T05:15:38;49.17;;;27.43;;
23642;SDS011;11998;55.788;37.572;2023-02-03T05:16:39;44.40;;;25.80;;
23642;SDS011;11998;55.788;37.572;2023-02-03T05:17:42;45.73;;;25.47;;
23642;SDS011;11998;55.788;37.572;2023-02-03T05:18:43;50.05;;;26.27;;
23642;SDS011;11998;55.788;37.572;2023-02-03T05:19:43;45.10;;;26.40;;
23642;SDS011;11998;55.788;37.572;2023-02-03T05:20:44;44.67;;;25.27;;
23642;SDS011;11998;55.788;37.572;2023-02-03T05:21:45;47.63;;;25.37;;
23642;SDS011;11998;55.788;37.572;2023-02-03T05:22:46;42.17;;;25.35;;
23642;SDS011;11998;55.788;37.572;2023-02-03T05:23:47;46.50;;;25.13;;
23642;SDS011;11998;55.788;37.572;2023-02-03T05:24:48;51.33;;;26.23;;
23642;SDS011;11998;55.788;37.572;2023-02-03T05:25:48;44.37;;;25.17;;
23642;SDS011;11998;55.788;37.572;2023-02-03T05:26:49;50.37;;;26.43;;
23642;SDS011;11998;55.788;37.572;2023-02-03T05:27:49;42.23;;;25.13;;
23642;SDS011;11998;55.788;37.572;2023-02-03T05:28:50;43.63;;;25.60;;
23642;SDS011;11998;55.788;37.572;2023-02-03T05:29:51;48.33;;;26.03;;
23642;SDS011;11998;55.788;37.572;2023-02-03T05:30:51;46.57;;;25.63;;
23642;SDS011;11998;55.788;37.572;2023-02-03T05:31:52;48.80;;;25.60;;
23642;SDS011;11998;55.788;37.572;2023-02-03T05:32:53;47.53;;;26.43;;
23642;SDS011;11998;55.788;37.572;2023-02-03T05:33:53;45.47;;;25.20;;
23642;SDS011;11998;55.788;37.572;2023-02-03T05:34:54;47.57;;;25.50;;
23642;SDS011;11998;55.788;37.572;2023-02-03T05:35:55;44.55;;;25.15;;
23642;SDS011;11998;55.788;37.572;2023-02-03T05:36:56;46.43;;;25.60;;
23642;SDS011;11998;55.788;37.572;2023-02-03T05:37:56;45.87;;;27.23;;
23642;SDS011;11998;55.788;37.572;2023-02-03T05:38:58;47.30;;;25.77;;
23642;SDS011;11998;55.788;37.572;2023-02-03T05:39:59;46.80;;;25.50;;
23642;SDS011;11998;55.788;37.572;2023-02-03T05:41:19;40.72;;;24.48;;
23642;SDS011;11998;55.788;37.572;2023-02-03T05:42:38;44.15;;;24.33;;
23642;SDS011;11998;55.788;37.572;2023-02-03T05:43:39;44.37;;;24.23;;
23642;SDS011;11998;55.788;37.572;2023-02-03T05:44:39;42.53;;;26.17;;
23642;SDS011;11998;55.788;37.572;2023-02-03T05:45:40;46.80;;;25.53;;
23642;SDS011;11998;55.788;37.572;2023-02-03T05:46:41;42.87;;;25.40;;
23642;SDS011;11998;55.788;37.572;2023-02-03T05:47:41;48.40;;;26.47;;
23642;SDS011;11998;55.788;37.572;2023-02-03T05:48:45;46.43;;;23.60;;
23642;SDS011;11998;55.788;37.572;2023-02-03T05:49:45;35.70;;;21.75;;
23642;SDS011;11998;55.788;37.572;2023-02-03T05:50:46;39.07;;;22.13;;
23642;SDS011;11998;55.788;37.572;2023-02-03T05:51:46;35.77;;;21.73;;
23642;SDS011;11998;55.788;37.572;2023-02-03T05:52:48;36.85;;;21.73;;
23642;SDS011;11998;55.788;37.572;2023-02-03T05:53:49;37.45;;;23.67;;
23642;SDS011;11998;55.788;37.572;2023-02-03T05:54:49;36.07;;;21.63;;
23642;SDS011;11998;55.788;37.572;2023-02-03T05:55:50;35.83;;;21.00;;
23642;SDS011;11998;55.788;37.572;2023-02-03T05:56:51;31.00;;;18.53;;
23642;SDS011;11998;55.788;37.572;2023-02-03T05:57:51;33.90;;;18.90;;
23642;SDS011;11998;55.788;37.572;2023-02-03T05:58:52;32.37;;;19.37;;
23642;SDS011;11998;55.788;37.572;2023-02-03T05:59:53;30.63;;;17.63;;
23642;SDS011;11998;55.788;37.572;2023-02-03T06:00:53;29.90;;;17.80;;
23642;SDS011;11998;55.788;37.572;2023-02-03T06:01:54;32.30;;;18.67;;
23642;SDS011;11998;55.788;37.572;2023-02-03T06:02:55;30.33;;;18.80;;
23642;SDS011;11998;55.788;37.572;2023-02-03T06:03:58;31.15;;;18.70;;
23642;SDS011;11998;55.788;37.572;2023-02-03T06:04:59;33.95;;;18.90;;
23642;SDS011;11998;55.788;37.572;2023-02-03T06:06:00;32.50;;;19.27;;
23642;SDS011;11998;55.788;37.572;2023-02-03T06:07:00;31.43;;;19.30;;
23642;SDS011;11998;55.788;37.572;2023-02-03T06:08:01;32.40;;;19.37;;
23642;SDS011;11998;55.788;37.572;2023-02-03T06:09:03;31.10;;;18.47;;
23642;SDS011;11998;55.788;37.572;2023-02-03T06:10:05;33.33;;;18.17;;
23642;SDS011;11998;55.788;37.572;2023-02-03T06:11:06;29.77;;;18.38;;
23642;SDS011;11998;55.788;37.572;2023-02-03T06:12:06;31.40;;;18.60;;
23642;SDS011;11998;55.788;37.572;2023-02-03T06:13:11;29.80;;;18.77;;
23642;SDS011;11998;55.788;37.572;2023-02-03T06:14:13;29.50;;;17.90;;
23642;SDS011;11998;55.788;37.572;2023-02-03T06:15:14;29.30;;;18.53;;
23642;SDS011;11998;55.788;37.572;2023-02-03T06:16:15;30.77;;;17.58;;
23642;SDS011;11998;55.788;37.572;2023-02-03T06:17:15;28.37;;;16.77;;
23642;SDS011;11998;55.788;37.572;2023-02-03T06:18:16;30.87;;;17.67;;
23642;SDS011;11998;55.788;37.572;2023-02-03T06:19:16;30.37;;;17.60;;
23642;SDS011;11998;55.788;37.572;2023-02-03T06:20:17;28.13;;;18.23;;
23642;SDS011;11998;55.788;37.572;2023-02-03T06:21:19;31.20;;;18.27;;
23642;SDS011;11998;55.788;37.572;2023-02-03T06:22:21;32.75;;;19.35;;
23642;SDS011;11998;55.788;37.572;2023-02-03T06:23:22;38.60;;;20.63;;
23642;SDS011;11998;55.788;37.572;2023-02-03T06:24:23;29.27;;;18.23;;
23642;SDS011;11998;55.788;37.572;2023-02-03T06:25:23;30.53;;;17.90;;
23642;SDS011;11998;55.788;37.572;2023-02-03T06:26:24;31.60;;;18.77;;
23642;SDS011;11998;55.788;37.572;2023-02-03T06:27:25;30.53;;;17.90;;
23642;SDS011;11998;55.788;37.572;2023-02-03T06:28:26;28.73;;;17.70;;
23642;SDS011;11998;55.788;37.572;2023-02-03T06:29:26;30.43;;;18.20;;